Accueil
METAR-TAF:

METAR-TAF

Aéroports :

Turin, Italie

Aéroport Sandro-Pertini de Turin Caselle

latitude: 45-13N, longitude: 007-39E, altitude: 301 m

Observation

Le bulletin a été fait il y a 39 minutes, à 20:50 UTC
Vent 3 kt de est/nord-est, variant entre nord-est et est
Température 12°C
Humidité 88%
Pression 1007 hPa
Visibilité: 8000 m
Nuages épars à une hauteur de 600 ft
Ciel couvert à une hauteur de 3000 ft

METAR: LIMF 262050Z 07003KT 040V100 8000 SCT006 OVC030 12/10 Q1007

Heure: 23:29 (21:29 UTC)

Prévision

Le bulletin a été fait il y a 4 heures et 29 minutes, à 17:00 UTC
Prévision valable du 26 à 18 UTC au 27 à 18 UTC
Vent 6 kt de nord-est
Visibilité: 7000 m
Nuages épars à une hauteur de 2000 ft
Nuages fragmentés à une hauteur de 6000 ft
Temporairement
du 27 à 12 UTC au 27 à 18 UTC
averses de pluie

TAF: LIMF 261700Z 2618/2718 05006KT 7000 SCT020 BKN060 TEMPO 2712/2718 SHRA

Observations et prévisions météorologiques de plus de 4000 aéroports (messages METAR et TAF).

Les stations disponibles sont représentées par des disques jaunes et rouges sur la carte.

Passer la souris dessus pour voir le nom de la station.

Cliquer dessus pour voir les observations et prévisions météorologiques.

Pour changer de carte: cliquez sur les boutons verts avec une croix noire pour zoomer, sur le bouton vert avec un tiret pour effectuer un zoom arrière, ou sur les flèches vertes pour les cartes adjacentes.


METAR-TAF: